Time;durP1;ratioP1;P1;durP2;ratioP2;P2;SDS_P1;SDS_P2;PMS_P1;PMS_P2;Temp;Humidity;BMP_temperature;BMP_pressure;BME280_temperature;BME280_humidity;BME280_pressure;Samples;Min_cycle;Max_cycle;Signal;HPM_P1;HPM_P2
2022/12/14 00:01:42;;;;;;;7.13;3.83;;;-1.60;94.50;;;;;;6285046;22;20019;-84
2022/12/14 00:04:15;;;;;;;8.40;3.53;;;-1.60;94.50;;;;;;6262100;22;20072;-83
2022/12/14 00:06:42;;;;;;;6.77;2.73;;;-1.60;94.50;;;;;;6259578;22;20513;-83
2022/12/14 00:09:09;;;;;;;7.00;3.13;;;-1.60;94.50;;;;;;6259959;22;20468;-84
2022/12/14 00:11:36;;;;;;;9.90;4.00;;;-1.60;94.50;;;;;;6259716;22;20117;-83
2022/12/14 00:14:04;;;;;;;7.30;3.47;;;-1.60;94.50;;;;;;6259929;22;20061;-84
2022/12/14 00:16:33;;;;;;;7.57;3.30;;;-1.60;94.50;;;;;;6285413;22;20041;-84
2022/12/14 00:19:00;;;;;;;8.87;3.30;;;-1.60;94.50;;;;;;6285423;22;20056;-83
2022/12/14 00:21:28;;;;;;;7.20;3.17;;;-1.60;94.50;;;;;;6284873;22;20391;-84
2022/12/14 00:23:57;;;;;;;6.90;3.50;;;-1.60;94.50;;;;;;6284751;22;20019;-83
2022/12/14 00:26:32;;;;;;;8.23;3.13;;;-1.60;94.50;;;;;;6284718;22;20391;-84
2022/12/14 00:29:00;;;;;;;8.47;3.17;;;-1.60;94.50;;;;;;6310494;22;20018;-84
2022/12/14 00:31:31;;;;;;;9.77;4.00;;;-1.60;94.50;;;;;;6310072;22;20026;-83
2022/12/14 00:33:59;;;;;;;6.63;2.83;;;-1.60;94.70;;;;;;6260153;22;20027;-83
2022/12/14 00:36:30;;;;;;;7.83;3.17;;;-1.60;94.40;;;;;;6285049;22;20068;-84
2022/12/14 00:38:57;;;;;;;7.47;3.47;;;-1.70;94.40;;;;;;6310073;22;20345;-82
2022/12/14 00:41:28;;;;;;;7.90;3.20;;;-1.70;94.40;;;;;;6260567;22;20021;-83
2022/12/14 00:43:55;;;;;;;6.13;2.83;;;-1.70;94.40;;;;;;6259458;22;20114;-82
2022/12/14 00:46:21;;;;;;;6.37;3.07;;;-1.70;94.40;;;;;;6259495;22;20061;-82
2022/12/14 00:48:49;;;;;;;8.90;3.60;;;-1.70;94.40;;;;;;6259715;22;20076;-82
2022/12/14 00:51:17;;;;;;;8.07;3.67;;;-1.70;94.40;;;;;;6234282;22;20021;-82
2022/12/14 00:53:44;;;;;;;8.73;3.90;;;-1.70;94.40;;;;;;6284789;22;20113;-82
2022/12/14 00:56:11;;;;;;;7.23;3.80;;;-1.70;94.40;;;;;;6284600;22;20517;-82
2022/12/14 00:58:38;;;;;;;7.20;3.40;;;-1.70;94.40;;;;;;6234192;22;20015;-82
2022/12/14 01:01:11;;;;;;;8.47;3.20;;;-1.70;94.40;;;;;;6284704;22;20021;-83
2022/12/14 01:03:38;;;;;;;6.77;3.40;;;-1.70;94.40;;;;;;6309932;22;20018;-82
2022/12/14 01:06:11;;;;;;;6.87;3.27;;;-1.70;94.60;;;;;;6259217;22;20517;-84
2022/12/14 01:08:38;;;;;;;5.23;2.37;;;-1.70;94.40;;;;;;6261032;22;20076;-83
2022/12/14 01:11:07;;;;;;;7.67;3.53;;;-1.70;94.40;;;;;;6284500;22;20026;-83
2022/12/14 01:13:35;;;;;;;7.70;3.30;;;-1.70;94.40;;;;;;6284772;22;20022;-84
2022/12/14 01:16:10;;;;;;;8.10;3.03;;;-1.80;94.30;;;;;;6285120;22;20081;-84
2022/12/14 01:18:40;;;;;;;6.40;2.97;;;-1.80;94.30;;;;;;6260229;22;20026;-83
2022/12/14 01:21:27;;;;;;;8.37;3.33;;;-1.80;94.30;;;;;;6284474;22;20048;-84
2022/12/14 01:23:59;;;;;;;7.57;3.23;;;-1.80;94.30;;;;;;6284650;22;20023;-84
2022/12/14 01:26:27;;;;;;;10.10;3.70;;;-1.80;94.30;;;;;;6284502;22;20023;-84
2022/12/14 01:28:58;;;;;;;9.60;3.33;;;-1.90;94.30;;;;;;6310214;22;20599;-84
2022/12/14 01:31:29;;;;;;;7.37;3.27;;;-1.90;94.30;;;;;;6284500;22;20105;-83
2022/12/14 01:33:56;;;;;;;6.80;3.47;;;-1.90;94.30;;;;;;6284627;22;20026;-83
2022/12/14 01:36:26;;;;;;;7.53;3.73;;;-1.90;94.30;;;;;;6283397;22;20350;-84
2022/12/14 01:38:55;;;;;;;6.97;3.17;;;-1.90;94.30;;;;;;6284502;22;20471;-82
2022/12/14 01:41:31;;;;;;;7.23;3.20;;;-1.80;94.30;;;;;;6310569;22;20052;-84
2022/12/14 01:44:06;;;;;;;8.53;3.43;;;-1.80;94.30;;;;;;6284457;22;20114;-83
2022/12/14 01:46:40;;;;;;;7.27;3.50;;;-1.90;94.20;;;;;;6284516;22;20026;-82
2022/12/14 01:49:27;;;;;;;9.45;3.83;;;-1.90;94.20;;;;;;6284097;22;20019;-82
2022/12/14 01:52:10;;;;;;;6.90;3.30;;;-1.80;94.20;;;;;;6285013;22;20049;-82
2022/12/14 01:54:46;;;;;;;7.43;2.95;;;-1.80;94.20;;;;;;6286023;22;20023;-82
2022/12/14 01:57:18;;;;;;;7.63;3.10;;;-1.90;94.20;;;;;;6286485;22;20019;-83
2022/12/14 01:59:46;;;;;;;7.43;2.33;;;-1.90;94.40;;;;;;6311637;22;20025;-84
2022/12/14 02:02:15;;;;;;;5.73;2.17;;;-1.80;94.20;;;;;;6286033;22;20042;-84
2022/12/14 02:04:49;;;;;;;6.97;3.23;;;-1.90;94.20;;;;;;6260637;22;20495;-84
2022/12/14 02:07:17;;;;;;;6.83;2.50;;;-1.80;94.20;;;;;;6286532;22;20075;-83
2022/12/14 02:09:45;;;;;;;5.73;2.33;;;-1.90;94.10;;;;;;6286047;22;20057;-83
2022/12/14 02:12:20;;;;;;;7.43;2.93;;;-1.90;94.20;;;;;;6236067;22;20452;-83
2022/12/14 02:14:47;;;;;;;5.80;1.93;;;-1.90;94.10;;;;;;6286001;22;20106;-84
2022/12/14 02:17:15;;;;;;;6.47;2.13;;;-1.90;94.20;;;;;;6260680;22;20071;-84
2022/12/14 02:19:42;;;;;;;6.17;2.10;;;-1.90;94.20;;;;;;6311948;22;20100;-84
2022/12/14 02:22:21;;;;;;;5.50;2.20;;;-1.90;94.20;;;;;;6261203;22;20065;-84
2022/12/14 02:25:00;;;;;;;6.63;2.80;;;-2.00;94.20;;;;;;6311469;22;20133;-84
2022/12/14 02:28:02;;;;;;;6.53;2.73;;;-2.00;94.20;;;;;;6285798;22;20054;-84
2022/12/14 02:30:36;;;;;;;6.47;2.87;;;-2.00;94.10;;;;;;6286107;22;20106;-84
2022/12/14 02:33:27;;;;;;;4.90;2.60;;;-2.00;94.20;;;;;;6286015;22;20025;-83
2022/12/14 02:36:07;;;;;;;6.07;2.60;;;-2.00;94.10;;;;;;6285778;22;20080;-83
2022/12/14 02:38:52;;;;;;;5.20;1.90;;;-2.10;94.10;;;;;;6311570;22;20057;-83
2022/12/14 02:41:37;;;;;;;5.33;1.70;;;-2.10;94.20;;;;;;6311560;22;20014;-86
2022/12/14 02:44:04;;;;;;;5.97;2.30;;;-2.10;94.10;;;;;;6286298;22;20064;-86
2022/12/14 02:46:30;;;;;;;5.63;2.30;;;-2.20;94.10;;;;;;6286801;22;20159;-85
2022/12/14 02:49:09;;;;;;;6.17;2.43;;;-2.20;94.20;;;;;;6286224;22;20050;-86
2022/12/14 02:51:53;;;;;;;5.57;2.20;;;-2.20;94.20;;;;;;6286361;22;20101;-86
2022/12/14 02:54:45;;;;;;;6.10;2.07;;;-2.20;94.20;;;;;;6286144;22;20349;-86
2022/12/14 02:57:16;;;;;;;4.47;1.50;;;-2.20;94.20;;;;;;6285820;22;20068;-85
2022/12/14 02:59:44;;;;;;;5.37;2.53;;;-2.20;94.20;;;;;;6286016;22;20053;-86
2022/12/14 03:02:13;;;;;;;5.10;2.07;;;-2.20;94.20;;;;;;6286095;22;20379;-86
2022/12/14 03:04:46;;;;;;;5.77;2.10;;;-2.20;94.20;;;;;;6286255;22;20097;-86
2022/12/14 03:07:40;;;;;;;6.97;2.83;;;-2.20;94.20;;;;;;6287440;22;20026;-86
2022/12/14 03:10:35;;;;;;;6.73;2.90;;;-2.20;94.20;;;;;;6286477;22;20076;-86
2022/12/14 03:13:25;;;;;;;5.93;2.10;;;-2.30;94.10;;;;;;6285919;22;20113;-86
2022/12/14 03:16:12;;;;;;;6.13;2.03;;;-2.30;94.10;;;;;;6285921;22;20021;-86
2022/12/14 03:18:52;;;;;;;4.40;1.90;;;-2.30;94.10;;;;;;6286352;22;20010;-86
2022/12/14 03:21:34;;;;;;;4.25;1.77;;;-2.30;94.10;;;;;;6286765;22;20042;-86
2022/12/14 03:24:07;;;;;;;5.70;2.20;;;-2.30;94.10;;;;;;6285806;22;20109;-86
2022/12/14 03:26:42;;;;;;;3.13;1.60;;;-2.30;94.10;;;;;;6285985;22;20031;-86
2022/12/14 03:29:21;;;;;;;4.80;1.77;;;-2.30;94.10;;;;;;6286979;22;20026;-86
2022/12/14 03:31:58;;;;;;;4.80;1.97;;;-2.40;94.10;;;;;;6311575;22;20097;-85
2022/12/14 03:34:31;;;;;;;5.60;2.53;;;-2.40;94.10;;;;;;6285335;22;20056;-86
2022/12/14 03:37:08;;;;;;;4.43;1.57;;;-2.40;94.10;;;;;;6285231;22;20399;-86
2022/12/14 03:39:38;;;;;;;4.43;1.67;;;-2.40;94.10;;;;;;6286244;22;20021;-86
2022/12/14 03:42:24;;;;;;;5.53;1.70;;;-2.40;94.10;;;;;;6285991;22;20015;-87
2022/12/14 03:45:16;;;;;;;4.13;1.33;;;-2.40;94.10;;;;;;6285468;22;20014;-84
2022/12/14 03:47:53;;;;;;;5.50;1.77;;;-2.50;94.00;;;;;;6285024;22;20441;-84
2022/12/14 03:50:24;;;;;;;5.07;1.73;;;-2.50;94.10;;;;;;6284928;22;20019;-83
2022/12/14 03:52:57;;;;;;;4.47;1.80;;;-2.50;94.10;;;;;;6285272;22;20026;-84
2022/12/14 03:55:30;;;;;;;4.80;1.47;;;-2.50;94.10;;;;;;6285148;22;20048;-84
2022/12/14 03:58:19;;;;;;;4.00;2.23;;;-2.50;94.10;;;;;;6285205;22;20271;-84
2022/12/14 04:01:32;;;;;;;4.70;1.77;;;-2.50;94.10;;;;;;6310826;22;20093;-83
2022/12/14 04:04:21;;;;;;;4.07;1.73;;;-2.50;94.10;;;;;;6228807;22;20092;-83
2022/12/14 04:07:04;;;;;;;3.87;1.77;;;-2.50;94.10;;;;;;6284938;22;20029;-84
2022/12/14 04:09:38;;;;;;;;;;;-2.50;94.10;;;;;;6285377;22;20050;-84
2022/12/14 04:21:18;;;;;;;3.63;0.95;;;-2.60;94.00;;;;;;6310621;22;20084;-84
2022/12/14 04:26:44;;;;;;;4.20;1.60;;;-2.50;94.00;;;;;;6310636;22;20332;-84
2022/12/14 04:32:35;;;;;;;3.73;1.60;;;-2.60;94.00;;;;;;6310006;22;20018;-84
2022/12/14 04:35:58;;;;;;;3.95;1.30;;;-2.60;94.00;;;;;;6285175;22;20449;-83
2022/12/14 04:38:36;;;;;;;3.53;1.00;;;-2.60;94.00;;;;;;6133216;23;20514;-84
2022/12/14 04:41:07;;;;;;;3.97;1.37;;;-2.70;94.00;;;;;;6264942;22;20397;-83
2022/12/14 04:43:41;;;;;;;3.07;1.07;;;-2.70;94.00;;;;;;6305049;22;20016;-83
2022/12/14 04:46:12;;;;;;;3.37;1.47;;;-2.70;94.00;;;;;;6305372;22;20433;-84
2022/12/14 04:49:06;;;;;;;2.80;1.00;;;-2.70;94.00;;;;;;6305116;22;20055;-83
2022/12/14 04:51:50;;;;;;;2.50;1.00;;;-2.70;94.00;;;;;;6279519;22;20023;-84
2022/12/14 04:54:36;;;;;;;3.67;1.10;;;-2.70;94.10;;;;;;6304960;22;20346;-84
2022/12/14 04:57:16;;;;;;;4.73;1.57;;;-2.70;94.00;;;;;;6304755;22;20043;-84
2022/12/14 04:59:46;;;;;;;4.37;1.30;;;-2.70;94.00;;;;;;6304911;22;20073;-84
2022/12/14 05:03:00;;;;;;;1.60;0.77;;;-2.70;94.00;;;;;;6254302;22;20020;-83
2022/12/14 05:05:34;;;;;;;2.87;1.10;;;-2.70;94.00;;;;;;6162262;23;20074;-83
2022/12/14 05:08:30;;;;;;;2.93;0.97;;;-2.70;94.00;;;;;;6186875;23;20404;-84
2022/12/14 05:11:03;;;;;;;3.03;0.97;;;-2.70;93.90;;;;;;6279548;22;20502;-83
2022/12/14 05:13:50;;;;;;;2.72;1.00;;;-2.70;93.90;;;;;;6283556;22;20124;-84
2022/12/14 05:16:20;;;;;;;2.93;0.80;;;-2.70;93.90;;;;;;6253960;22;20077;-84
2022/12/14 05:18:48;;;;;;;2.87;0.90;;;-2.70;93.90;;;;;;6305278;22;20022;-84
2022/12/14 05:24:04;;;;;;;3.40;0.90;;;-2.60;93.90;;;;;;6284089;22;20043;-84
2022/12/14 05:26:31;;;;;;;2.60;0.90;;;-2.60;93.90;;;;;;6254302;22;20094;-84
2022/12/14 05:28:58;;;;;;;5.07;1.50;;;-2.60;93.90;;;;;;6306941;22;20118;-84
2022/12/14 05:31:25;;;;;;;4.23;1.17;;;-2.60;93.80;;;;;;6231183;22;21083;-83
2022/12/14 05:33:55;;;;;;;2.93;1.03;;;-2.60;93.80;;;;;;6230936;22;20023;-84
2022/12/14 05:36:22;;;;;;;3.47;0.90;;;-2.60;94.00;;;;;;6256146;22;20376;-83
2022/12/14 05:38:49;;;;;;;3.23;1.10;;;-2.60;93.80;;;;;;6286489;22;20014;-83
2022/12/14 05:41:16;;;;;;;2.83;1.20;;;-2.60;93.70;;;;;;6286322;22;20042;-84
2022/12/14 05:43:43;;;;;;;2.90;1.17;;;-2.60;93.70;;;;;;6261181;22;20087;-83
2022/12/14 05:46:14;;;;;;;2.40;0.80;;;-2.50;93.70;;;;;;6262839;22;20109;-84
2022/12/14 05:48:41;;;;;;;4.43;1.83;;;-2.60;93.70;;;;;;6286547;22;20109;-84
2022/12/14 05:51:15;;;;;;;2.83;1.13;;;-2.50;93.70;;;;;;6287648;22;20023;-84
2022/12/14 05:53:42;;;;;;;3.73;1.40;;;-2.50;93.70;;;;;;6286473;22;20022;-83
2022/12/14 05:56:10;;;;;;;3.60;1.67;;;-2.50;93.60;;;;;;6286267;22;20027;-81
2022/12/14 05:58:41;;;;;;;3.83;1.40;;;-2.60;93.90;;;;;;6260830;22;20015;-83
2022/12/14 06:01:10;;;;;;;3.80;1.20;;;-2.60;93.60;;;;;;6311435;22;20424;-82
2022/12/14 06:03:45;;;;;;;4.30;1.73;;;-2.60;93.60;;;;;;6264380;22;20391;-86
2022/12/14 06:06:12;;;;;;;4.73;1.80;;;-2.60;93.60;;;;;;6261024;22;20110;-85
2022/12/14 06:08:42;;;;;;;3.53;1.30;;;-2.60;93.60;;;;;;6286095;22;20042;-85
2022/12/14 06:11:18;;;;;;;3.30;1.17;;;-2.60;93.60;;;;;;6311760;22;20026;-85
2022/12/14 06:13:46;;;;;;;2.73;1.10;;;-2.70;93.60;;;;;;6286171;22;20023;-85
2022/12/14 06:16:15;;;;;;;5.10;1.17;;;-2.70;93.60;;;;;;6286079;22;20101;-84
2022/12/14 06:18:48;;;;;;;4.27;1.67;;;-2.80;93.60;;;;;;6311746;22;20042;-84
2022/12/14 06:21:16;;;;;;;;;;;-2.80;93.60;;;;;;6286458;22;20049;-84
2022/12/14 06:23:43;;;;;;;4.00;1.13;;;-2.80;93.70;;;;;;6311944;22;19918;-84
2022/12/14 06:26:12;;;;;;;2.70;0.80;;;-2.80;93.70;;;;;;6286833;22;20072;-84
2022/12/14 06:28:39;;;;;;;3.77;1.00;;;-2.90;93.70;;;;;;6286971;22;20014;-87
2022/12/14 06:31:07;;;;;;;3.03;0.93;;;-2.90;93.70;;;;;;6261198;22;20015;-86
2022/12/14 06:33:40;;;;;;;4.77;1.03;;;-3.00;93.70;;;;;;6262208;22;20042;-90
2022/12/14 06:36:22;;;;;;;3.50;1.27;;;-3.00;93.80;;;;;;6287233;22;20042;-84
2022/12/14 06:38:53;;;;;;;3.47;1.20;;;-3.00;93.80;;;;;;6286196;22;20337;-85
2022/12/14 06:41:20;;;;;;;4.03;1.13;;;-3.00;94.00;;;;;;6286264;22;20054;-83
2022/12/14 06:43:51;;;;;;;4.40;1.20;;;-3.00;94.00;;;;;;6286650;22;20072;-85
2022/12/14 06:46:24;;;;;;;2.63;0.80;;;-3.00;93.70;;;;;;6287060;22;20444;-86
2022/12/14 06:48:55;;;;;;;4.03;0.97;;;-3.00;93.70;;;;;;6261281;22;20015;-84
2022/12/14 06:51:23;;;;;;;3.80;1.03;;;-3.00;93.70;;;;;;6311936;22;20040;-85
2022/12/14 06:53:55;;;;;;;2.77;0.80;;;-3.10;93.70;;;;;;6286194;22;20057;-85
2022/12/14 06:56:25;;;;;;;2.63;0.93;;;-3.10;93.80;;;;;;6262113;22;20049;-85
2022/12/14 06:58:55;;;;;;;3.47;1.57;;;-3.10;93.80;;;;;;6285994;22;20048;-85
2022/12/14 07:01:26;;;;;;;4.53;1.27;;;-3.10;93.80;;;;;;6311475;22;20109;-85
2022/12/14 07:03:56;;;;;;;3.60;0.70;;;-3.20;93.80;;;;;;6286177;22;20101;-85
2022/12/14 07:06:24;;;;;;;3.73;1.03;;;-3.20;93.80;;;;;;6311471;22;20019;-84
2022/12/14 07:08:53;;;;;;;2.43;0.70;;;-3.20;93.80;;;;;;6260812;22;20118;-85
2022/12/14 07:11:21;;;;;;;2.43;0.90;;;-3.20;93.80;;;;;;6285760;22;20018;-85
2022/12/14 07:13:48;;;;;;;2.90;1.13;;;-3.20;93.80;;;;;;6260434;22;20019;-86
2022/12/14 07:16:19;;;;;;;3.17;1.00;;;-3.20;93.80;;;;;;6235433;22;20019;-85
2022/12/14 07:18:55;;;;;;;2.93;0.63;;;-3.30;93.80;;;;;;6311693;22;20444;-85
2022/12/14 07:21:23;;;;;;;2.47;0.97;;;-3.30;93.80;;;;;;6285984;22;20014;-85
2022/12/14 07:23:54;;;;;;;1.50;0.60;;;-3.30;93.80;;;;;;6260894;22;20041;-86
2022/12/14 07:26:24;;;;;;;2.30;0.80;;;-3.40;93.80;;;;;;6285555;22;20015;-86
2022/12/14 07:28:51;;;;;;;3.50;0.80;;;-3.40;93.80;;;;;;6311361;22;20018;-85
2022/12/14 07:31:24;;;;;;;2.77;0.83;;;-3.40;93.90;;;;;;6285520;22;20091;-86
2022/12/14 07:33:57;;;;;;;3.08;1.00;;;-3.40;93.90;;;;;;6311194;22;20018;-85
2022/12/14 07:36:26;;;;;;;4.33;1.30;;;-3.40;93.90;;;;;;6285304;22;20064;-85
2022/12/14 07:38:54;;;;;;;2.67;1.43;;;-3.40;93.90;;;;;;6285878;22;20023;-85
2022/12/14 07:41:28;;;;;;;2.27;0.70;;;-3.50;93.90;;;;;;6311402;22;20345;-85
2022/12/14 07:43:56;;;;;;;3.97;1.27;;;-3.50;93.90;;;;;;6285287;22;20022;-86
2022/12/14 07:46:26;;;;;;;2.10;0.60;;;-3.50;93.90;;;;;;6285801;22;20010;-86
2022/12/14 07:48:55;;;;;;;2.80;0.97;;;-3.50;93.90;;;;;;6285404;22;20019;-85
2022/12/14 07:51:25;;;;;;;2.30;0.67;;;-3.60;93.90;;;;;;6285295;22;20459;-85
2022/12/14 07:53:55;;;;;;;1.53;0.67;;;-3.60;93.90;;;;;;6311237;22;20344;-86
2022/12/14 07:56:27;;;;;;;3.73;0.97;;;-3.60;93.90;;;;;;6311675;22;20379;-86
2022/12/14 07:58:55;;;;;;;2.33;0.70;;;-3.60;94.00;;;;;;6311133;22;20091;-86
2022/12/14 08:01:32;;;;;;;2.60;1.00;;;-3.60;94.00;;;;;;6260115;22;20042;-86
2022/12/14 08:04:09;;;;;;;2.77;1.10;;;-3.60;94.00;;;;;;6260437;22;20018;-86
2022/12/14 08:06:38;;;;;;;3.23;1.13;;;-3.70;93.90;;;;;;6285074;22;20018;-86
2022/12/14 08:09:09;;;;;;;4.03;1.30;;;-3.60;93.90;;;;;;6285013;22;20349;-86
2022/12/14 08:11:37;;;;;;;3.70;1.40;;;-3.60;93.90;;;;;;6260506;22;20027;-85
2022/12/14 08:14:15;;;;;;;5.37;1.67;;;-3.60;93.80;;;;;;6260451;22;20015;-86
2022/12/14 08:16:43;;;;;;;2.57;1.00;;;-3.60;93.80;;;;;;6310620;22;20628;-83
2022/12/14 08:19:11;;;;;;;4.10;1.33;;;-3.60;93.80;;;;;;6310799;22;20328;-83
2022/12/14 08:21:39;;;;;;;4.07;1.43;;;-3.70;93.80;;;;;;6310189;22;20101;-83
2022/12/14 08:24:08;;;;;;;4.87;1.27;;;-3.60;93.80;;;;;;6259337;22;20022;-83
2022/12/14 08:26:35;;;;;;;3.27;1.30;;;-3.70;93.80;;;;;;6285286;22;20046;-83
2022/12/14 08:29:06;;;;;;;5.70;1.73;;;-3.70;93.80;;;;;;6233970;22;20514;-83
2022/12/14 08:31:33;;;;;;;3.83;1.30;;;-3.70;93.80;;;;;;6309898;22;20049;-84
2022/12/14 08:34:01;;;;;;;3.47;1.40;;;-3.70;93.80;;;;;;6259351;22;20019;-83
2022/12/14 08:36:31;;;;;;;3.37;1.80;;;-3.70;93.80;;;;;;6284178;22;20019;-81
2022/12/14 08:39:09;;;;;;;5.03;1.70;;;-3.70;93.80;;;;;;6284705;22;20155;-82
2022/12/14 08:41:36;;;;;;;3.20;1.13;;;-3.70;93.80;;;;;;6284732;22;20018;-83
2022/12/14 08:44:03;;;;;;;4.00;1.50;;;-3.80;93.80;;;;;;6259506;22;20022;-83
2022/12/14 08:46:32;;;;;;;3.90;1.27;;;-3.80;93.80;;;;;;6260126;22;20015;-82
2022/12/14 08:49:00;;;;;;;3.43;1.10;;;-3.80;93.90;;;;;;6259862;22;20109;-82
2022/12/14 08:51:28;;;;;;;4.20;1.30;;;-3.80;93.90;;;;;;6285145;22;20023;-83
2022/12/14 08:53:56;;;;;;;3.70;1.20;;;-3.80;93.90;;;;;;6284447;22;20445;-83
2022/12/14 08:56:25;;;;;;;6.63;1.37;;;-3.70;93.90;;;;;;6310762;22;20098;-83
2022/12/14 08:58:55;;;;;;;3.83;1.33;;;-3.70;93.80;;;;;;6284459;22;20011;-83
2022/12/14 09:01:24;;;;;;;4.53;1.80;;;-3.80;93.80;;;;;;6311460;22;20017;-82
2022/12/14 09:04:04;;;;;;;3.63;1.27;;;-3.70;93.80;;;;;;6314266;22;20038;-83
2022/12/14 09:06:35;;;;;;;6.45;2.90;;;-3.70;93.80;;;;;;6339832;22;20022;-82
2022/12/14 09:09:04;;;;;;;4.60;1.73;;;-3.70;93.80;;;;;;6286729;22;20029;-82
2022/12/14 09:11:36;;;;;;;4.37;1.30;;;-3.60;93.70;;;;;;6263511;22;20046;-83
2022/12/14 09:14:03;;;;;;;3.93;1.47;;;-3.60;93.70;;;;;;6286712;22;20014;-83
2022/12/14 09:16:30;;;;;;;5.43;1.67;;;-3.60;93.60;;;;;;6286557;22;20053;-82
2022/12/14 09:18:59;;;;;;;3.90;1.40;;;-3.50;93.60;;;;;;6237894;22;20471;-82
2022/12/14 09:21:26;;;;;;;4.30;1.63;;;-3.50;93.60;;;;;;6236213;22;20029;-82
2022/12/14 09:23:53;;;;;;;4.17;1.27;;;-3.50;93.60;;;;;;6261437;22;20049;-83
2022/12/14 09:26:26;;;;;;;3.83;1.23;;;-3.50;93.60;;;;;;6287998;22;20441;-82
2022/12/14 09:28:55;;;;;;;3.10;1.07;;;-3.50;93.60;;;;;;6261798;22;20025;-82
2022/12/14 09:31:25;;;;;;;3.73;1.00;;;-3.50;93.60;;;;;;6286435;22;20015;-82
2022/12/14 09:33:53;;;;;;;3.17;1.00;;;-3.50;93.60;;;;;;6286697;22;20019;-83
2022/12/14 09:36:26;;;;;;;4.67;1.23;;;-3.40;93.60;;;;;;6261219;22;20026;-82
2022/12/14 09:38:54;;;;;;;;;;;-3.40;93.90;;;;;;6286615;22;20053;-82
2022/12/14 09:41:33;;;;;;;3.57;1.30;;;-3.40;93.60;;;;;;6312043;22;20222;-83
2022/12/14 09:44:10;;;;;;;2.63;0.80;;;-3.30;93.50;;;;;;6286957;22;20432;-83
2022/12/14 09:46:53;;;;;;;5.50;1.05;;;-3.30;93.50;;;;;;6287857;22;20018;-82
2022/12/14 09:49:28;;;;;;;3.77;1.20;;;-3.30;93.40;;;;;;6286529;22;20022;-83
2022/12/14 09:52:00;;;;;;;2.47;0.90;;;-3.20;93.40;;;;;;6286478;22;20317;-82
2022/12/14 09:54:36;;;;;;;3.77;0.97;;;-3.20;93.40;;;;;;6286816;22;20072;-82
2022/12/14 09:57:12;;;;;;;3.77;1.43;;;-3.20;93.40;;;;;;6286215;22;20022;-83
2022/12/14 09:59:42;;;;;;;3.23;0.87;;;-3.20;93.30;;;;;;6286850;22;20015;-83
2022/12/14 10:02:27;;;;;;;2.67;0.80;;;-3.10;93.40;;;;;;6236369;22;20022;-83
2022/12/14 10:05:28;;;;;;;2.40;0.80;;;-3.10;93.30;;;;;;6286859;22;20045;-82
2022/12/14 10:08:05;;;;;;;3.27;0.90;;;-3.00;93.30;;;;;;6286358;22;20049;-83
2022/12/14 10:10:48;;;;;;;3.80;1.10;;;-3.10;93.30;;;;;;6312393;22;20018;-83
2022/12/14 10:13:39;;;;;;;3.83;1.20;;;-3.10;93.30;;;;;;6286434;22;20027;-82
2022/12/14 10:16:06;;;;;;;3.43;0.93;;;-3.00;93.30;;;;;;6286243;22;20340;-83
2022/12/14 10:18:58;;;;;;;3.57;0.83;;;-3.00;93.20;;;;;;6286178;22;20109;-83
2022/12/14 10:21:51;;;;;;;2.90;0.93;;;-2.90;93.20;;;;;;6286536;22;20084;-83
2022/12/14 10:24:29;;;;;;;2.83;0.80;;;-2.90;93.20;;;;;;6286212;22;20445;-83
2022/12/14 10:26:56;;;;;;;3.07;1.10;;;-2.90;93.20;;;;;;6286069;22;20437;-83
2022/12/14 10:29:36;;;;;;;2.17;0.70;;;-2.90;93.40;;;;;;6261193;22;20090;-83
2022/12/14 10:32:29;;;;;;;2.97;0.83;;;-2.90;93.20;;;;;;6285914;22;20023;-83
2022/12/14 10:34:56;;;;;;;;;;;-2.80;93.20;;;;;;6286438;22;20076;-83
2022/12/14 10:37:30;;;;;;;3.00;0.97;;;-2.80;93.20;;;;;;6285831;22;20390;-83
2022/12/14 10:40:19;;;;;;;2.97;0.80;;;-2.80;93.20;;;;;;6311639;22;20018;-83
2022/12/14 10:43:37;;;;;;;3.40;1.00;;;-2.80;93.10;;;;;;6288523;22;20391;-83
2022/12/14 10:46:27;;;;;;;2.23;1.40;;;-2.70;93.10;;;;;;6285833;22;20053;-83
2022/12/14 10:49:16;;;;;;;3.40;0.80;;;-2.70;93.10;;;;;;6286246;22;20046;-83
2022/12/14 10:52:07;;;;;;;3.33;1.07;;;-2.70;93.10;;;;;;6285682;22;20050;-83
2022/12/14 10:54:43;;;;;;;2.40;0.93;;;-2.70;93.10;;;;;;6311797;22;20098;-82
2022/12/14 10:57:18;;;;;;;3.60;0.97;;;-2.70;93.10;;;;;;6286053;22;20018;-83
2022/12/14 10:59:45;;;;;;;3.50;0.93;;;-2.60;93.10;;;;;;6311162;22;20026;-82
2022/12/14 11:02:37;;;;;;;3.60;1.20;;;-2.60;93.10;;;;;;6248204;22;20014;-83
2022/12/14 11:05:26;;;;;;;2.85;0.75;;;-2.60;93.00;;;;;;6285642;22;20019;-83
2022/12/14 11:08:03;;;;;;;2.60;0.70;;;-2.50;93.10;;;;;;6287371;22;20019;-83
2022/12/14 11:10:31;;;;;;;2.13;0.60;;;-2.50;93.00;;;;;;6285771;22;20033;-81
2022/12/14 11:13:07;;;;;;;2.67;0.70;;;-2.50;92.90;;;;;;6285647;22;20061;-81
2022/12/14 11:15:37;;;;;;;4.50;1.30;;;-2.40;93.00;;;;;;6285672;22;20034;-80
2022/12/14 11:18:29;;;;;;;4.00;1.10;;;-2.40;93.00;;;;;;6311034;22;20023;-80
2022/12/14 11:21:00;;;;;;;2.80;0.80;;;-2.40;92.90;;;;;;6292676;22;20114;-80
2022/12/14 11:23:29;;;;;;;2.57;1.00;;;-2.40;92.90;;;;;;6285509;22;20015;-80
2022/12/14 11:26:02;;;;;;;2.17;0.60;;;-2.40;92.90;;;;;;6285549;22;20464;-80
2022/12/14 11:28:45;;;;;;;3.63;0.80;;;-2.30;92.90;;;;;;6285636;22;20023;-81
2022/12/14 11:31:19;;;;;;;2.60;0.90;;;-2.30;92.90;;;;;;6286131;22;20019;-81
2022/12/14 11:33:49;;;;;;;2.43;1.00;;;-2.30;92.80;;;;;;6285449;22;20050;-81
2022/12/14 11:36:39;;;;;;;3.40;1.03;;;-2.30;92.80;;;;;;6285633;22;20033;-81
2022/12/14 11:39:12;;;;;;;3.33;0.90;;;-2.20;92.80;;;;;;6311420;22;20395;-81
2022/12/14 11:41:45;;;;;;;4.87;1.67;;;-2.20;92.80;;;;;;6285585;22;20021;-81
2022/12/14 11:44:15;;;;;;;;;;;-2.20;92.80;;;;;;6311735;22;20463;-81
2022/12/14 11:46:57;;;;;;;4.37;1.60;;;-2.20;92.80;;;;;;6285689;22;19938;-81
2022/12/14 11:49:28;;;;;;;4.00;2.08;;;-2.10;92.80;;;;;;6285574;22;20067;-81
2022/12/14 11:52:03;;;;;;;6.93;2.40;;;-2.10;92.70;;;;;;6310857;22;20023;-80
2022/12/14 11:54:42;;;;;;;5.87;2.60;;;-2.00;92.70;;;;;;6311430;22;20044;-82
2022/12/14 11:57:33;;;;;;;5.60;2.40;;;-1.90;92.60;;;;;;6311230;22;20023;-83
2022/12/14 12:00:19;;;;;;;4.57;2.00;;;-1.90;92.90;;;;;;6285517;22;20068;-82
2022/12/14 12:02:53;;;;;;;4.63;1.83;;;-1.90;92.60;;;;;;6285364;22;20023;-83
2022/12/14 12:05:22;;;;;;;4.77;1.80;;;-1.80;92.60;;;;;;6311033;22;20061;-82
2022/12/14 12:07:55;;;;;;;4.43;1.60;;;-1.80;92.60;;;;;;6261482;22;20023;-83
2022/12/14 12:10:28;;;;;;;4.97;1.83;;;-1.80;92.60;;;;;;6285558;22;20030;-83
2022/12/14 12:12:58;;;;;;;6.60;1.55;;;-1.80;92.60;;;;;;6310865;22;20668;-82
2022/12/14 12:15:35;;;;;;;3.70;1.60;;;-1.80;92.60;;;;;;6285217;22;20407;-83
2022/12/14 12:18:33;;;;;;;6.20;2.03;;;-1.70;92.60;;;;;;6285175;22;20054;-82
2022/12/14 12:21:18;;;;;;;3.87;1.10;;;-1.60;92.60;;;;;;6287748;22;20051;-84
2022/12/14 12:24:06;;;;;;;4.63;1.47;;;-1.60;92.80;;;;;;6285749;22;20019;-83
2022/12/14 12:26:41;;;;;;;3.07;1.17;;;-1.60;92.50;;;;;;6310818;22;20089;-82
2022/12/14 12:29:21;;;;;;;4.00;1.42;;;-1.60;92.50;;;;;;6310896;22;20113;-82
2022/12/14 12:32:27;;;;;;;3.00;1.23;;;-1.50;92.50;;;;;;6285569;22;20096;-81
2022/12/14 12:35:08;;;;;;;3.30;1.10;;;-1.50;92.50;;;;;;6285036;22;20076;-81
2022/12/14 12:37:45;;;;;;;3.13;0.90;;;-1.50;92.50;;;;;;6310318;22;20353;-77
2022/12/14 12:40:36;;;;;;;3.33;1.67;;;-1.40;92.50;;;;;;6310851;22;20034;-81
2022/12/14 12:43:19;;;;;;;3.13;1.17;;;-1.40;92.50;;;;;;6285463;22;20015;-78
2022/12/14 12:45:45;;;;;;;3.73;1.00;;;-1.40;92.50;;;;;;6310949;22;20015;-81
2022/12/14 12:48:53;;;;;;;4.70;1.43;;;-1.40;92.50;;;;;;6284806;22;20453;-79
2022/12/14 12:51:31;;;;;;;4.53;2.03;;;-1.20;92.40;;;;;;6226227;22;20023;-81
2022/12/14 12:54:06;;;;;;;4.50;1.53;;;-1.20;92.20;;;;;;6284744;22;20018;-79
2022/12/14 12:56:44;;;;;;;5.73;2.20;;;-1.10;92.10;;;;;;6285017;22;20058;-80
2022/12/14 12:59:23;;;;;;;4.43;1.67;;;-1.00;92.00;;;;;;6310837;22;20078;-82
2022/12/14 13:01:56;;;;;;;5.30;1.93;;;-0.90;91.90;;;;;;6311156;22;20015;-81
2022/12/14 13:04:37;;;;;;;4.43;1.67;;;-0.90;91.90;;;;;;6310903;22;20090;-79
2022/12/14 13:07:29;;;;;;;5.43;1.93;;;-0.80;91.90;;;;;;6284642;22;20023;-81
2022/12/14 13:10:14;;;;;;;4.15;1.45;;;-0.90;91.90;;;;;;6285235;22;20054;-79
2022/12/14 13:12:46;;;;;;;4.87;1.53;;;-0.80;91.90;;;;;;6310329;22;20341;-80
2022/12/14 13:15:31;;;;;;;3.65;1.30;;;-0.80;91.80;;;;;;6284843;22;20053;-82
2022/12/14 13:18:11;;;;;;;4.50;1.83;;;-0.70;91.70;;;;;;6284624;22;20023;-82
2022/12/14 13:21:25;;;;;;;4.43;1.57;;;-0.70;91.60;;;;;;6291010;22;20136;-80
2022/12/14 13:23:52;;;;;;;4.30;1.73;;;-0.60;91.50;;;;;;6338034;22;20094;-80
2022/12/14 13:26:49;;;;;;;4.00;1.80;;;-0.60;91.50;;;;;;6284548;22;20041;-80
2022/12/14 13:29:38;;;;;;;4.97;1.70;;;-0.60;91.40;;;;;;6312705;22;20026;-80
2022/12/14 13:32:19;;;;;;;3.90;1.37;;;-0.50;91.40;;;;;;6284601;22;20015;-78
2022/12/14 13:35:18;;;;;;;5.27;1.40;;;-0.50;91.40;;;;;;6284825;22;20516;-81
2022/12/14 13:38:14;;;;;;;4.83;1.60;;;-0.60;91.30;;;;;;6285169;22;20022;-81
2022/12/14 13:41:20;;;;;;;3.20;1.50;;;-0.50;91.40;;;;;;6310748;22;20046;-81
2022/12/14 13:44:33;;;;;;;4.00;1.77;;;-0.60;91.30;;;;;;6206330;22;20083;-80
2022/12/14 13:47:28;;;;;;;3.03;1.07;;;-0.60;91.30;;;;;;6286590;22;20512;-80
2022/12/14 13:50:01;;;;;;;4.37;1.60;;;-0.60;91.30;;;;;;6286584;22;20052;-80